createdAt,value
2022-11-07T00:02:28.620Z,7.09
2022-11-07T00:17:30.410Z,7.10
2022-11-07T00:32:31.822Z,7.45
2022-11-07T00:47:33.745Z,7.55
2022-11-07T01:02:35.230Z,7.92
2022-11-07T01:17:36.715Z,8.27
2022-11-07T01:32:38.233Z,8.39
2022-11-07T01:47:39.625Z,8.53
2022-11-07T02:02:41.152Z,8.61
2022-11-07T02:17:42.681Z,8.61
2022-11-07T02:32:44.043Z,8.62
2022-11-07T02:47:45.447Z,8.54
2022-11-07T03:02:47.462Z,8.41
2022-11-07T03:17:49.015Z,8.15
2022-11-07T03:32:50.393Z,8.38
2022-11-07T03:47:55.086Z,8.61
2022-11-07T04:02:56.559Z,8.76
2022-11-07T04:17:58.029Z,8.96
2022-11-07T04:32:59.392Z,9.12
2022-11-07T04:48:00.767Z,9.27
2022-11-07T05:03:02.196Z,9.42
2022-11-07T05:18:03.624Z,9.57
2022-11-07T05:33:05.041Z,9.58
2022-11-07T05:48:06.415Z,9.50
2022-11-07T06:03:14.409Z,9.54
2022-11-07T06:18:16.255Z,9.51
2022-11-07T06:33:18.693Z,9.53
2022-11-07T06:48:20.542Z,9.53
2022-11-07T07:03:22.255Z,9.68
2022-11-07T07:18:24.687Z,9.92
2022-11-07T07:33:26.641Z,10.58
2022-11-07T07:48:28.745Z,11.19
2022-11-07T08:03:50.628Z,11.20
2022-11-07T08:18:53.308Z,11.79
2022-11-07T08:33:55.252Z,12.00
2022-11-07T08:48:57.047Z,12.03
2022-11-07T09:04:01.743Z,11.70
2022-11-07T09:19:03.688Z,12.74
2022-11-07T09:34:08.096Z,12.84
2022-11-07T09:49:10.800Z,13.24
2022-11-07T10:20:25.390Z,14.54
2022-11-07T10:35:42.376Z,15.02
2022-11-07T10:50:43.833Z,14.21
2022-11-07T11:05:46.170Z,13.76
2022-11-07T11:20:48.786Z,14.68
2022-11-07T11:35:50.428Z,15.27
2022-11-07T11:50:51.858Z,14.74
2022-11-07T12:05:53.296Z,14.04
2022-11-07T12:20:55.643Z,13.61
2022-11-07T12:35:57.049Z,13.52
2022-11-07T12:50:58.487Z,13.76
2022-11-07T13:05:59.890Z,13.77
2022-11-07T13:21:01.372Z,13.89
2022-11-07T13:36:02.765Z,13.82
2022-11-07T13:51:04.188Z,13.93
2022-11-07T14:06:05.644Z,13.22
2022-11-07T14:21:07.032Z,12.80
2022-11-07T14:36:08.419Z,12.71
2022-11-07T14:51:12.672Z,12.47
2022-11-07T15:06:14.073Z,12.14
2022-11-07T15:21:15.763Z,11.88
2022-11-07T15:36:17.135Z,11.23
2022-11-07T15:51:18.549Z,11.33
2022-11-07T16:06:22.953Z,11.21
2022-11-07T16:37:34.892Z,10.97
2022-11-07T16:52:36.298Z,10.90
2022-11-07T17:07:37.687Z,10.32
2022-11-07T17:22:39.102Z,10.31
2022-11-07T17:37:40.524Z,9.74
2022-11-07T17:52:41.917Z,9.40
2022-11-07T18:07:44.017Z,9.38
2022-11-07T18:22:45.416Z,9.57
2022-11-07T18:37:46.993Z,9.26
2022-11-07T18:52:48.714Z,8.95
2022-11-07T19:07:50.104Z,8.87
2022-11-07T19:22:51.512Z,9.02
2022-11-07T19:37:53.103Z,8.37
2022-11-07T19:52:54.508Z,8.11
2022-11-07T20:07:58.264Z,8.19
2022-11-07T20:23:03.688Z,8.11
2022-11-07T20:38:06.032Z,8.29
2022-11-07T20:53:07.405Z,8.12
2022-11-07T21:08:08.836Z,8.04
2022-11-07T21:23:10.901Z,8.28
2022-11-07T21:38:12.288Z,8.08
2022-11-07T21:53:13.859Z,8.11
2022-11-07T22:08:21.070Z,8.04
2022-11-07T22:23:24.885Z,8.23
2022-11-07T22:38:26.327Z,8.40
2022-11-07T22:53:27.690Z,8.26
2022-11-07T23:08:29.071Z,8.45
2022-11-07T23:23:30.551Z,8.52
2022-11-07T23:38:32.252Z,8.79
2022-11-07T23:53:52.296Z,8.50
